DAH1070 DAAG-LFMT
Flight info
| Callsign | DAH1070 |
|---|---|
| Flight time | 1h 12m |
| Altitude | 38000 |
| Route | PECES1C MHN N853 LUMAS UM976 SOSUR DCT DIVKO DCT SALIN Y25 MARRI |
| Aircraft | A320/M-SDE3FGHIRWY/LB1 |
Departure
| Time | 2026-04-26 19:33 |
|---|---|
| Airport | Houari Boumediene Airport (DAAG) |
Arrival
| Time | 2026-04-26 20:45 |
|---|---|
| Airport | Montpellier-Méditerranée Airport (LFMT) |
| Time | Latitude | Longitude | Altitude | Speed | Heading |
|---|---|---|---|---|---|
| 2026-04-26 19:20 | 36.69684 | 3.20781 | 70 ft | 0 kts | 6° |
| 2026-04-26 19:25 | 36.69677 | 3.20780 | 63 ft | 4 kts | 5° |
| 2026-04-26 19:25 | 36.69650 | 3.20778 | 68 ft | 4 kts | 0° |
| 2026-04-26 19:26 | 36.69623 | 3.20780 | 68 ft | 4 kts | 347° |
| 2026-04-26 19:26 | 36.69601 | 3.20792 | 62 ft | 4 kts | 300° |
| 2026-04-26 19:26 | 36.69597 | 3.20802 | 62 ft | 1 kts | 271° |
| 2026-04-26 19:30 | 36.69597 | 3.20799 | 62 ft | 2 kts | 271° |
| 2026-04-26 19:30 | 36.69596 | 3.20775 | 67 ft | 6 kts | 256° |
| 2026-04-26 19:31 | 36.69563 | 3.20807 | 65 ft | 9 kts | 142° |
| 2026-04-26 19:31 | 36.69476 | 3.20847 | 65 ft | 18 kts | 164° |
| 2026-04-26 19:31 | 36.69328 | 3.20904 | 62 ft | 27 kts | 162° |
| 2026-04-26 19:31 | 36.69170 | 3.20970 | 69 ft | 18 kts | 174° |
| 2026-04-26 19:32 | 36.69117 | 3.20879 | 68 ft | 12 kts | 270° |
| 2026-04-26 19:32 | 36.69118 | 3.20779 | 72 ft | 12 kts | 271° |
| 2026-04-26 19:32 | 36.69124 | 3.20493 | 77 ft | 70 kts | 271° |
| 2026-04-26 19:32 | 36.69147 | 3.19590 | 71 ft | 135 kts | 271° |
| 2026-04-26 19:33 | 36.69181 | 3.18211 | 145 ft | 177 kts | 272° |
| 2026-04-26 19:33 | 36.69216 | 3.16745 | 1061 ft | 162 kts | 271° |
| 2026-04-26 19:33 | 36.69282 | 3.15322 | 1682 ft | 172 kts | 279° |
| 2026-04-26 19:33 | 36.69563 | 3.13810 | 2166 ft | 186 kts | 289° |
| 2026-04-26 19:34 | 36.70121 | 3.12287 | 2614 ft | 203 kts | 302° |
| 2026-04-26 19:34 | 36.71039 | 3.10824 | 2971 ft | 227 kts | 319° |
| 2026-04-26 19:34 | 36.72342 | 3.09601 | 3437 ft | 249 kts | 334° |
| 2026-04-26 19:34 | 36.74016 | 3.08819 | 4051 ft | 263 kts | 351° |
| 2026-04-26 19:35 | 36.75853 | 3.08682 | 4968 ft | 268 kts | 6° |
| 2026-04-26 19:35 | 36.77664 | 3.09241 | 5838 ft | 273 kts | 24° |
| 2026-04-26 19:35 | 36.79283 | 3.10512 | 6682 ft | 278 kts | 43° |
| 2026-04-26 19:35 | 36.80611 | 3.12302 | 7511 ft | 284 kts | 50° |
| 2026-04-26 19:36 | 36.81935 | 3.14172 | 8351 ft | 291 kts | 50° |
| 2026-04-26 19:36 | 36.82828 | 3.15431 | 8908 ft | 295 kts | 50° |
| 2026-04-26 19:36 | 36.84676 | 3.18029 | 10007 ft | 304 kts | 51° |
| 2026-04-26 19:36 | 36.86114 | 3.20046 | 10530 ft | 322 kts | 50° |
| 2026-04-26 19:37 | 36.87656 | 3.22216 | 10823 ft | 346 kts | 50° |
| 2026-04-26 19:37 | 36.89308 | 3.24540 | 11059 ft | 369 kts | 50° |
| 2026-04-26 19:37 | 36.91065 | 3.27011 | 11326 ft | 389 kts | 50° |
| 2026-04-26 19:37 | 36.92969 | 3.29465 | 11926 ft | 397 kts | 41° |
| 2026-04-26 19:38 | 36.95211 | 3.31502 | 12652 ft | 402 kts | 31° |
| 2026-04-26 19:38 | 36.97742 | 3.33028 | 13328 ft | 406 kts | 20° |
| 2026-04-26 19:38 | 37.00397 | 3.34107 | 14015 ft | 409 kts | 17° |
| 2026-04-26 19:38 | 37.03125 | 3.35201 | 14619 ft | 413 kts | 17° |
| 2026-04-26 19:39 | 37.05867 | 3.36313 | 15253 ft | 416 kts | 18° |
| 2026-04-26 19:39 | 37.08627 | 3.37436 | 15833 ft | 419 kts | 18° |
| 2026-04-26 19:39 | 37.11404 | 3.38569 | 16511 ft | 420 kts | 18° |
| 2026-04-26 19:39 | 37.14198 | 3.39708 | 17097 ft | 424 kts | 17° |
| 2026-04-26 19:40 | 37.17007 | 3.40850 | 17701 ft | 426 kts | 17° |
| 2026-04-26 19:40 | 37.19832 | 3.41994 | 18320 ft | 428 kts | 17° |
| 2026-04-26 19:40 | 37.22674 | 3.43146 | 18842 ft | 430 kts | 17° |
| 2026-04-26 19:40 | 37.25523 | 3.44302 | 19375 ft | 432 kts | 17° |
| 2026-04-26 19:41 | 37.28393 | 3.45469 | 19850 ft | 434 kts | 17° |
| 2026-04-26 19:41 | 37.31274 | 3.46640 | 20357 ft | 436 kts | 18° |
| 2026-04-26 19:41 | 37.34131 | 3.47801 | 20825 ft | 439 kts | 18° |
| 2026-04-26 19:41 | 37.36098 | 3.48602 | 21147 ft | 440 kts | 18° |
| 2026-04-26 19:42 | 37.39968 | 3.50181 | 21751 ft | 443 kts | 18° |
| 2026-04-26 19:42 | 37.42910 | 3.51383 | 22208 ft | 445 kts | 19° |
| 2026-04-26 19:42 | 37.45855 | 3.52586 | 22705 ft | 446 kts | 18° |
| 2026-04-26 19:42 | 37.48815 | 3.53795 | 23151 ft | 448 kts | 19° |
| 2026-04-26 19:43 | 37.51786 | 3.55011 | 23601 ft | 450 kts | 19° |
| 2026-04-26 19:43 | 37.54771 | 3.56235 | 23965 ft | 452 kts | 19° |
| 2026-04-26 19:43 | 37.57770 | 3.57465 | 24313 ft | 454 kts | 19° |
| 2026-04-26 19:43 | 37.60742 | 3.58685 | 24655 ft | 456 kts | 20° |
| 2026-04-26 19:44 | 37.63761 | 3.59926 | 24967 ft | 458 kts | 19° |
| 2026-04-26 19:44 | 37.66799 | 3.61176 | 25299 ft | 459 kts | 19° |
| 2026-04-26 19:44 | 37.69833 | 3.62424 | 25672 ft | 459 kts | 19° |
| 2026-04-26 19:44 | 37.72875 | 3.63676 | 26010 ft | 461 kts | 19° |
| 2026-04-26 19:45 | 37.75931 | 3.64934 | 26291 ft | 463 kts | 20° |
| 2026-04-26 19:45 | 37.78999 | 3.66197 | 26592 ft | 465 kts | 19° |
| 2026-04-26 19:45 | 37.82083 | 3.67469 | 26865 ft | 467 kts | 20° |
| 2026-04-26 19:45 | 37.85175 | 3.68744 | 27148 ft | 469 kts | 20° |
| 2026-04-26 19:46 | 37.88281 | 3.70028 | 27483 ft | 470 kts | 19° |
| 2026-04-26 19:46 | 37.91385 | 3.71316 | 27863 ft | 469 kts | 20° |
| 2026-04-26 19:46 | 37.94443 | 3.72589 | 28227 ft | 469 kts | 19° |
| 2026-04-26 19:46 | 37.97538 | 3.73875 | 28633 ft | 468 kts | 20° |
| 2026-04-26 19:47 | 38.00627 | 3.75158 | 29036 ft | 467 kts | 19° |
| 2026-04-26 19:47 | 38.02674 | 3.76008 | 29306 ft | 467 kts | 19° |
| 2026-04-26 19:47 | 38.06798 | 3.77716 | 29841 ft | 466 kts | 20° |
| 2026-04-26 19:47 | 38.09877 | 3.78995 | 30253 ft | 465 kts | 19° |
| 2026-04-26 19:48 | 38.12939 | 3.80270 | 30588 ft | 465 kts | 20° |
| 2026-04-26 19:48 | 38.16017 | 3.81558 | 30951 ft | 463 kts | 19° |
| 2026-04-26 19:48 | 38.19075 | 3.82835 | 31321 ft | 462 kts | 18° |
| 2026-04-26 19:48 | 38.22130 | 3.84115 | 31650 ft | 462 kts | 19° |
| 2026-04-26 19:49 | 38.25178 | 3.85393 | 31971 ft | 462 kts | 18° |
| 2026-04-26 19:49 | 38.28192 | 3.86656 | 32277 ft | 463 kts | 19° |
| 2026-04-26 19:49 | 38.31257 | 3.87940 | 32595 ft | 463 kts | 19° |
| 2026-04-26 19:49 | 38.34317 | 3.89218 | 32906 ft | 463 kts | 18° |
| 2026-04-26 19:50 | 38.37387 | 3.90502 | 33220 ft | 464 kts | 18° |
| 2026-04-26 19:50 | 38.40442 | 3.91782 | 33536 ft | 464 kts | 18° |
| 2026-04-26 19:50 | 38.43513 | 3.93070 | 33845 ft | 464 kts | 19° |
| 2026-04-26 19:50 | 38.46581 | 3.94351 | 34161 ft | 464 kts | 17° |
| 2026-04-26 19:51 | 38.49730 | 3.95294 | 34406 ft | 465 kts | 8° |
| 2026-04-26 19:51 | 38.52926 | 3.95894 | 34692 ft | 465 kts | 8° |
| 2026-04-26 19:51 | 38.56089 | 3.96485 | 34953 ft | 465 kts | 8° |
| 2026-04-26 19:51 | 38.59287 | 3.97090 | 35258 ft | 464 kts | 8° |
| 2026-04-26 19:52 | 38.62466 | 3.97696 | 35688 ft | 460 kts | 8° |
| 2026-04-26 19:52 | 38.65625 | 3.98297 | 36027 ft | 458 kts | 7° |
| 2026-04-26 19:52 | 38.68774 | 3.98898 | 36282 ft | 458 kts | 7° |
| 2026-04-26 19:52 | 38.71928 | 3.99499 | 36519 ft | 458 kts | 7° |
| 2026-04-26 19:53 | 38.75079 | 4.00099 | 36745 ft | 458 kts | 7° |
| 2026-04-26 19:53 | 38.78231 | 4.00696 | 36971 ft | 458 kts | 7° |
| 2026-04-26 19:53 | 38.81391 | 4.01294 | 37203 ft | 458 kts | 7° |
| 2026-04-26 19:53 | 38.84544 | 4.01894 | 37438 ft | 458 kts | 7° |
| 2026-04-26 19:54 | 38.87697 | 4.02498 | 37676 ft | 458 kts | 7° |
| 2026-04-26 19:54 | 38.90805 | 4.03096 | 37889 ft | 458 kts | 7° |
| 2026-04-26 19:54 | 38.93952 | 4.03703 | 38094 ft | 458 kts | 7° |
| 2026-04-26 19:54 | 38.97103 | 4.04310 | 38162 ft | 459 kts | 7° |
| 2026-04-26 19:55 | 39.03415 | 4.05522 | 38157 ft | 458 kts | 6° |
| 2026-04-26 19:55 | 39.09720 | 4.06728 | 38159 ft | 457 kts | 7° |
| 2026-04-26 19:56 | 39.16018 | 4.07938 | 38154 ft | 457 kts | 7° |
| 2026-04-26 19:56 | 39.22306 | 4.09165 | 38109 ft | 457 kts | 7° |
| 2026-04-26 19:57 | 39.28592 | 4.10415 | 38142 ft | 457 kts | 8° |
| 2026-04-26 19:57 | 39.34810 | 4.11677 | 38288 ft | 455 kts | 8° |
| 2026-04-26 19:58 | 39.41066 | 4.12919 | 38170 ft | 454 kts | 7° |
| 2026-04-26 19:58 | 39.47290 | 4.14027 | 38145 ft | 451 kts | 6° |
| 2026-04-26 19:59 | 39.53513 | 4.15177 | 38157 ft | 452 kts | 7° |
| 2026-04-26 19:59 | 39.59731 | 4.16393 | 38173 ft | 452 kts | 8° |
| 2026-04-26 20:00 | 39.65944 | 4.17625 | 38177 ft | 452 kts | 8° |
| 2026-04-26 20:00 | 39.72158 | 4.18842 | 38181 ft | 451 kts | 8° |
| 2026-04-26 20:01 | 39.78326 | 4.20057 | 38188 ft | 451 kts | 8° |
| 2026-04-26 20:01 | 39.84535 | 4.21271 | 38185 ft | 451 kts | 8° |
| 2026-04-26 20:02 | 39.90736 | 4.22561 | 38183 ft | 451 kts | 9° |
| 2026-04-26 20:02 | 39.95870 | 4.23780 | 38186 ft | 451 kts | 10° |
| 2026-04-26 20:03 | 40.03081 | 4.25548 | 38183 ft | 451 kts | 10° |
| 2026-04-26 20:03 | 40.09257 | 4.27021 | 38181 ft | 451 kts | 9° |
| 2026-04-26 20:04 | 40.15429 | 4.28459 | 38150 ft | 450 kts | 9° |
| 2026-04-26 20:04 | 40.21597 | 4.29910 | 38159 ft | 450 kts | 9° |
| 2026-04-26 20:05 | 40.27721 | 4.31364 | 38167 ft | 451 kts | 9° |
| 2026-04-26 20:05 | 40.33895 | 4.32832 | 38171 ft | 451 kts | 9° |
| 2026-04-26 20:06 | 40.40071 | 4.34300 | 38181 ft | 451 kts | 9° |
| 2026-04-26 20:06 | 40.46241 | 4.35757 | 38186 ft | 450 kts | 9° |
| 2026-04-26 20:07 | 40.52407 | 4.37218 | 38190 ft | 450 kts | 9° |
| 2026-04-26 20:07 | 40.58517 | 4.38683 | 38187 ft | 449 kts | 9° |
| 2026-04-26 20:08 | 40.64672 | 4.40153 | 38185 ft | 449 kts | 9° |
| 2026-04-26 20:08 | 40.70818 | 4.41618 | 38184 ft | 449 kts | 9° |
| 2026-04-26 20:09 | 40.76959 | 4.43105 | 38187 ft | 448 kts | 9° |
| 2026-04-26 20:09 | 40.83093 | 4.44616 | 38218 ft | 448 kts | 9° |
| 2026-04-26 20:10 | 40.89183 | 4.46105 | 38101 ft | 448 kts | 8° |
| 2026-04-26 20:10 | 40.95321 | 4.47529 | 38297 ft | 448 kts | 8° |
| 2026-04-26 20:11 | 41.01462 | 4.48977 | 38153 ft | 447 kts | 9° |
| 2026-04-26 20:12 | 41.10609 | 4.51238 | 38148 ft | 446 kts | 9° |
| 2026-04-26 20:12 | 41.16684 | 4.52735 | 38147 ft | 448 kts | 9° |
| 2026-04-26 20:13 | 41.22820 | 4.54231 | 38147 ft | 448 kts | 9° |
| 2026-04-26 20:13 | 41.28955 | 4.55730 | 38161 ft | 449 kts | 8° |
| 2026-04-26 20:14 | 41.35106 | 4.57236 | 38163 ft | 449 kts | 9° |
| 2026-04-26 20:14 | 41.41241 | 4.58742 | 38172 ft | 449 kts | 8° |
| 2026-04-26 20:15 | 41.47353 | 4.60242 | 38177 ft | 449 kts | 8° |
| 2026-04-26 20:15 | 41.53511 | 4.61762 | 38177 ft | 450 kts | 8° |
| 2026-04-26 20:16 | 41.59659 | 4.63282 | 38172 ft | 450 kts | 8° |
| 2026-04-26 20:16 | 41.65825 | 4.64804 | 38175 ft | 450 kts | 8° |
| 2026-04-26 20:17 | 41.71941 | 4.66317 | 38185 ft | 450 kts | 8° |
| 2026-04-26 20:17 | 41.77991 | 4.68507 | 38176 ft | 451 kts | 14° |
| 2026-04-26 20:18 | 41.84016 | 4.70900 | 38174 ft | 451 kts | 14° |
| 2026-04-26 20:18 | 41.90036 | 4.73282 | 38184 ft | 451 kts | 14° |
| 2026-04-26 20:19 | 41.96062 | 4.75659 | 38179 ft | 451 kts | 14° |
| 2026-04-26 20:19 | 42.02076 | 4.78047 | 38183 ft | 451 kts | 14° |
| 2026-04-26 20:20 | 42.08094 | 4.80450 | 38180 ft | 451 kts | 14° |
| 2026-04-26 20:20 | 42.14072 | 4.82843 | 38181 ft | 451 kts | 14° |
| 2026-04-26 20:21 | 42.20091 | 4.85260 | 38175 ft | 451 kts | 14° |
| 2026-04-26 20:21 | 42.26103 | 4.87667 | 38168 ft | 451 kts | 14° |
| 2026-04-26 20:22 | 42.32125 | 4.90077 | 38194 ft | 451 kts | 14° |
| 2026-04-26 20:22 | 42.38129 | 4.92494 | 38193 ft | 450 kts | 14° |
| 2026-04-26 20:23 | 42.44074 | 4.94897 | 38188 ft | 449 kts | 14° |
| 2026-04-26 20:23 | 42.50053 | 4.97324 | 38178 ft | 449 kts | 14° |
| 2026-04-26 20:24 | 42.56179 | 4.98517 | 38185 ft | 443 kts | 356° |
| 2026-04-26 20:24 | 42.62181 | 4.97026 | 38185 ft | 438 kts | 340° |
| 2026-04-26 20:25 | 42.67976 | 4.94441 | 38180 ft | 438 kts | 341° |
| 2026-04-26 20:25 | 42.73771 | 4.91883 | 38184 ft | 437 kts | 341° |
| 2026-04-26 20:26 | 42.79517 | 4.89346 | 38188 ft | 437 kts | 341° |
| 2026-04-26 20:26 | 42.85289 | 4.86783 | 38187 ft | 436 kts | 340° |
| 2026-04-26 20:27 | 42.91045 | 4.84213 | 38181 ft | 436 kts | 340° |
| 2026-04-26 20:27 | 42.96820 | 4.81626 | 38185 ft | 436 kts | 340° |
| 2026-04-26 20:28 | 43.02577 | 4.79053 | 38185 ft | 435 kts | 340° |
| 2026-04-26 20:28 | 43.08453 | 4.77083 | 37964 ft | 436 kts | 349° |
| 2026-04-26 20:28 | 43.11420 | 4.76467 | 36791 ft | 437 kts | 349° |
| 2026-04-26 20:29 | 43.14442 | 4.75848 | 35333 ft | 442 kts | 350° |
| 2026-04-26 20:29 | 43.17498 | 4.75228 | 34081 ft | 443 kts | 350° |
| 2026-04-26 20:29 | 43.20502 | 4.74592 | 33230 ft | 430 kts | 347° |
| 2026-04-26 20:29 | 43.23342 | 4.73468 | 32259 ft | 421 kts | 337° |
| 2026-04-26 20:30 | 43.25958 | 4.71721 | 31243 ft | 418 kts | 328° |
| 2026-04-26 20:30 | 43.28328 | 4.69414 | 30276 ft | 419 kts | 319° |
| 2026-04-26 20:30 | 43.30407 | 4.66591 | 29046 ft | 422 kts | 310° |
| 2026-04-26 20:30 | 43.32131 | 4.63311 | 27895 ft | 426 kts | 301° |
| 2026-04-26 20:31 | 43.33093 | 4.60951 | 27142 ft | 429 kts | 299° |
| 2026-04-26 20:31 | 43.34540 | 4.57325 | 25978 ft | 437 kts | 300° |
| 2026-04-26 20:31 | 43.36495 | 4.52424 | 24480 ft | 445 kts | 301° |
| 2026-04-26 20:31 | 43.37986 | 4.48673 | 23321 ft | 449 kts | 300° |
| 2026-04-26 20:32 | 43.39480 | 4.44893 | 22046 ft | 452 kts | 300° |
| 2026-04-26 20:32 | 43.40469 | 4.42367 | 21360 ft | 452 kts | 300° |
| 2026-04-26 20:32 | 43.41945 | 4.38575 | 20482 ft | 448 kts | 299° |
| 2026-04-26 20:32 | 43.43411 | 4.34791 | 19583 ft | 446 kts | 299° |
| 2026-04-26 20:33 | 43.44853 | 4.31031 | 18709 ft | 444 kts | 297° |
| 2026-04-26 20:33 | 43.45992 | 4.27089 | 17863 ft | 441 kts | 288° |
| 2026-04-26 20:33 | 43.46678 | 4.23001 | 16949 ft | 439 kts | 281° |
| 2026-04-26 20:33 | 43.47770 | 4.17718 | 15814 ft | 432 kts | 295° |
| 2026-04-26 20:34 | 43.49207 | 4.14144 | 15095 ft | 425 kts | 304° |
| 2026-04-26 20:34 | 43.50364 | 4.11900 | 14597 ft | 422 kts | 305° |
| 2026-04-26 20:34 | 43.51730 | 4.08374 | 14302 ft | 417 kts | 292° |
| 2026-04-26 20:34 | 43.52654 | 4.04652 | 14145 ft | 416 kts | 289° |
| 2026-04-26 20:35 | 43.53576 | 4.00880 | 14163 ft | 415 kts | 289° |
| 2026-04-26 20:35 | 43.54504 | 3.97164 | 13620 ft | 402 kts | 289° |
| 2026-04-26 20:35 | 43.55398 | 3.93657 | 13234 ft | 373 kts | 290° |
| 2026-04-26 20:35 | 43.56233 | 3.90429 | 13058 ft | 343 kts | 290° |
| 2026-04-26 20:36 | 43.57006 | 3.87460 | 12925 ft | 316 kts | 290° |
| 2026-04-26 20:36 | 43.57729 | 3.84676 | 12542 ft | 303 kts | 290° |
| 2026-04-26 20:36 | 43.58429 | 3.81966 | 11948 ft | 297 kts | 290° |
| 2026-04-26 20:36 | 43.59114 | 3.79295 | 11346 ft | 294 kts | 289° |
| 2026-04-26 20:37 | 43.59787 | 3.76660 | 10739 ft | 290 kts | 289° |
| 2026-04-26 20:37 | 43.60446 | 3.74078 | 10146 ft | 287 kts | 289° |
| 2026-04-26 20:37 | 43.61105 | 3.71500 | 9490 ft | 284 kts | 289° |
| 2026-04-26 20:37 | 43.61756 | 3.68937 | 9234 ft | 283 kts | 289° |
| 2026-04-26 20:38 | 43.62402 | 3.66398 | 9099 ft | 275 kts | 289° |
| 2026-04-26 20:38 | 43.63022 | 3.63955 | 8980 ft | 264 kts | 289° |
| 2026-04-26 20:38 | 43.63617 | 3.61611 | 8842 ft | 255 kts | 290° |
| 2026-04-26 20:38 | 43.64529 | 3.59504 | 8698 ft | 260 kts | 314° |
| 2026-04-26 20:39 | 43.66034 | 3.58148 | 8366 ft | 259 kts | 341° |
| 2026-04-26 20:39 | 43.67808 | 3.57847 | 7939 ft | 261 kts | 7° |
| 2026-04-26 20:39 | 43.69500 | 3.58666 | 7442 ft | 265 kts | 33° |
| 2026-04-26 20:39 | 43.70858 | 3.60404 | 6956 ft | 269 kts | 47° |
| 2026-04-26 20:40 | 43.72061 | 3.62390 | 6439 ft | 272 kts | 60° |
| 2026-04-26 20:40 | 43.72548 | 3.64888 | 5921 ft | 268 kts | 92° |
| 2026-04-26 20:40 | 43.72084 | 3.67284 | 5563 ft | 253 kts | 119° |
| 2026-04-26 20:40 | 43.71214 | 3.69333 | 5219 ft | 241 kts | 121° |
| 2026-04-26 20:41 | 43.70374 | 3.71282 | 4875 ft | 232 kts | 121° |
| 2026-04-26 20:41 | 43.69554 | 3.73180 | 4481 ft | 230 kts | 121° |
| 2026-04-26 20:41 | 43.68731 | 3.75089 | 4075 ft | 233 kts | 121° |
| 2026-04-26 20:41 | 43.67916 | 3.76988 | 3730 ft | 233 kts | 122° |
| 2026-04-26 20:42 | 43.67041 | 3.78865 | 3404 ft | 232 kts | 124° |
| 2026-04-26 20:42 | 43.66123 | 3.80703 | 3068 ft | 231 kts | 126° |
| 2026-04-26 20:42 | 43.65218 | 3.82484 | 2749 ft | 222 kts | 126° |
| 2026-04-26 20:42 | 43.64346 | 3.84199 | 2450 ft | 215 kts | 126° |
| 2026-04-26 20:43 | 43.63513 | 3.85846 | 2097 ft | 203 kts | 126° |
| 2026-04-26 20:43 | 43.62727 | 3.87400 | 1769 ft | 192 kts | 126° |
| 2026-04-26 20:43 | 43.61988 | 3.88861 | 1472 ft | 180 kts | 126° |
| 2026-04-26 20:43 | 43.61309 | 3.90210 | 1222 ft | 164 kts | 126° |
| 2026-04-26 20:44 | 43.60685 | 3.91449 | 929 ft | 151 kts | 126° |
| 2026-04-26 20:44 | 43.60109 | 3.92591 | 674 ft | 141 kts | 125° |
| 2026-04-26 20:44 | 43.59567 | 3.93674 | 433 ft | 134 kts | 125° |
| 2026-04-26 20:44 | 43.59047 | 3.94711 | 241 ft | 129 kts | 125° |
| 2026-04-26 20:45 | 43.58540 | 3.95718 | 55 ft | 127 kts | 125° |
| 2026-04-26 20:45 | 43.58075 | 3.96640 | 18 ft | 98 kts | 125° |
| 2026-04-26 20:45 | 43.57858 | 3.97053 | 13 ft | 22 kts | 147° |
| 2026-04-26 20:45 | 43.57783 | 3.97022 | 14 ft | 9 kts | 194° |
| 2026-04-26 20:46 | 43.57739 | 3.96973 | 13 ft | 8 kts | 233° |
| 2026-04-26 20:46 | 43.57744 | 3.96903 | 13 ft | 6 kts | 317° |
| 2026-04-26 20:46 | 43.57790 | 3.96807 | 13 ft | 20 kts | 302° |
| 2026-04-26 20:46 | 43.57858 | 3.96669 | 11 ft | 15 kts | 306° |
| 2026-04-26 20:47 | 43.57916 | 3.96555 | 13 ft | 13 kts | 301° |
| 2026-04-26 20:47 | 43.57946 | 3.96491 | 14 ft | 11 kts | 306° |
| 2026-04-26 20:47 | 43.58002 | 3.96383 | 15 ft | 10 kts | 304° |
| 2026-04-26 20:47 | 43.58039 | 3.96303 | 15 ft | 12 kts | 297° |
| 2026-04-26 20:48 | 43.57998 | 3.96221 | 16 ft | 11 kts | 215° |
| 2026-04-26 20:48 | 43.57963 | 3.96144 | 15 ft | 8 kts | 276° |
| 2026-04-26 20:48 | 43.57992 | 3.96085 | 15 ft | 7 kts | 308° |
| 2026-04-26 20:48 | 43.57993 | 3.96031 | 17 ft | 6 kts | 230° |
| 2026-04-26 20:49 | 43.57965 | 3.96003 | 17 ft | 4 kts | 215° |
| 2026-04-26 20:49 | 43.57960 | 3.95998 | 16 ft | 0 kts | 215° |
| 2026-04-26 20:59 | 43.57961 | 3.95998 | 15 ft | 0 kts | 215° |
| 2026-04-26 21:03 | 43.57961 | 3.95999 | 15 ft | 0 kts | 215° |